createdAt,value
2023-03-21T00:00:20.576Z,11.67
2023-03-21T00:02:46.980Z,12.37
2023-03-21T00:05:15.791Z,9.70
2023-03-21T00:07:42.586Z,11.33
2023-03-21T00:10:16.620Z,10.70
2023-03-21T00:12:44.653Z,10.87
2023-03-21T00:15:12.832Z,10.00
2023-03-21T00:17:39.758Z,10.70
2023-03-21T00:20:07.875Z,11.33
2023-03-21T00:22:35.675Z,10.57
2023-03-21T00:25:02.225Z,9.87
2023-03-21T00:27:47.557Z,8.57
2023-03-21T00:30:16.095Z,10.37
2023-03-21T00:32:55.142Z,8.53
2023-03-21T00:35:53.400Z,8.23
2023-03-21T00:38:09.451Z,8.93
2023-03-21T00:40:43.703Z,10.37
2023-03-21T00:43:19.152Z,9.10
2023-03-21T00:45:46.512Z,9.90
2023-03-21T00:48:13.572Z,9.57
2023-03-21T00:50:42.057Z,8.53
2023-03-21T00:53:08.787Z,8.87
2023-03-21T00:55:35.442Z,9.40
2023-03-21T00:58:02.728Z,8.27
2023-03-21T01:00:29.714Z,8.47
2023-03-21T01:03:02.883Z,7.57
2023-03-21T01:05:52.279Z,8.33
2023-03-21T01:08:27.979Z,8.40
2023-03-21T01:11:02.646Z,7.43
2023-03-21T01:13:29.013Z,7.80
2023-03-21T01:15:56.739Z,8.80
2023-03-21T01:18:27.211Z,7.77
2023-03-21T01:20:56.319Z,8.23
2023-03-21T01:23:26.169Z,9.27
2023-03-21T01:25:54.139Z,9.13
2023-03-21T01:28:20.822Z,9.40
2023-03-21T01:30:48.892Z,9.37
2023-03-21T01:33:16.170Z,9.53
2023-03-21T01:35:50.504Z,8.03
2023-03-21T01:38:22.194Z,9.70
2023-03-21T01:40:50.181Z,10.03
2023-03-21T01:43:29.548Z,11.63
2023-03-21T01:46:20.935Z,11.33
2023-03-21T01:49:12.854Z,12.03
2023-03-21T01:51:43.784Z,12.00
2023-03-21T01:54:15.166Z,11.83
2023-03-21T01:56:46.117Z,11.50
2023-03-21T01:59:24.738Z,11.73
2023-03-21T02:02:17.871Z,11.10
2023-03-21T02:04:58.127Z,10.73
2023-03-21T02:07:35.529Z,11.50
2023-03-21T02:10:09.827Z,11.10
2023-03-21T02:12:39.415Z,11.60
2023-03-21T02:15:08.894Z,10.50
2023-03-21T02:18:04.971Z,12.17
2023-03-21T02:21:02.446Z,10.97
2023-03-21T02:24:12.314Z,11.30
2023-03-21T02:27:04.755Z,13.17
2023-03-21T02:29:53.421Z,12.10
2023-03-21T02:32:37.683Z,11.07
2023-03-21T02:35:24.750Z,10.97
2023-03-21T02:38:14.436Z,11.40
2023-03-21T02:40:50.110Z,11.60
2023-03-21T02:43:27.287Z,12.53
2023-03-21T02:46:14.232Z,12.97
2023-03-21T02:48:59.815Z,13.67
2023-03-21T02:51:30.352Z,12.43
2023-03-21T02:54:26.531Z,12.80
2023-03-21T02:56:52.257Z,12.37
2023-03-21T02:59:21.121Z,13.60
2023-03-21T03:01:47.588Z,12.43
2023-03-21T03:04:22.487Z,12.03
2023-03-21T03:07:09.286Z,12.90
2023-03-21T03:09:55.587Z,12.93
2023-03-21T03:12:40.974Z,13.20
2023-03-21T03:15:21.862Z,11.63
2023-03-21T03:17:48.171Z,12.53
2023-03-21T03:20:28.837Z,12.67
2023-03-21T03:23:26.211Z,12.43
2023-03-21T03:26:01.809Z,13.00
2023-03-21T03:28:35.271Z,12.40
2023-03-21T03:31:12.686Z,10.80
2023-03-21T03:33:47.559Z,11.10
2023-03-21T03:36:33.374Z,11.40
2023-03-21T03:39:20.511Z,10.93
2023-03-21T03:42:27.230Z,11.27
2023-03-21T03:45:01.209Z,11.73
2023-03-21T03:47:55.974Z,11.33
2023-03-21T03:50:31.349Z,12.57
2023-03-21T03:53:18.040Z,11.50
2023-03-21T03:55:47.218Z,12.53
2023-03-21T03:58:23.796Z,12.63
2023-03-21T04:00:53.287Z,11.97
2023-03-21T04:03:20.940Z,11.00
2023-03-21T04:05:48.904Z,12.17
2023-03-21T04:08:16.265Z,11.60
2023-03-21T04:10:46.546Z,13.57
2023-03-21T04:13:13.316Z,12.30
2023-03-21T04:15:58.315Z,13.17
2023-03-21T04:18:24.722Z,12.30
2023-03-21T04:20:51.419Z,13.77
2023-03-21T04:23:20.099Z,13.23
2023-03-21T04:25:56.382Z,13.07
2023-03-21T04:28:29.423Z,13.27
2023-03-21T04:31:24.149Z,12.67
2023-03-21T04:33:55.818Z,12.43
2023-03-21T04:36:26.266Z,13.23
2023-03-21T04:38:57.073Z,11.83
2023-03-21T04:41:23.470Z,13.43
2023-03-21T04:43:49.861Z,13.50
2023-03-21T04:46:16.437Z,12.63
2023-03-21T04:48:42.871Z,13.30
2023-03-21T04:51:09.246Z,12.77
2023-03-21T04:53:38.297Z,13.70
2023-03-21T04:56:06.589Z,12.43
2023-03-21T04:58:33.751Z,12.63
2023-03-21T05:01:02.368Z,11.90
2023-03-21T05:03:29.865Z,10.70
2023-03-21T05:05:57.926Z,9.87
2023-03-21T05:08:24.253Z,11.43
2023-03-21T05:10:51.053Z,9.97
2023-03-21T05:13:17.553Z,9.77
2023-03-21T05:15:43.896Z,9.80
2023-03-21T05:18:10.991Z,9.83
2023-03-21T05:20:44.617Z,9.40
2023-03-21T05:23:11.735Z,9.53
2023-03-21T05:25:39.725Z,9.73
2023-03-21T05:28:12.063Z,9.47
2023-03-21T05:30:38.708Z,9.07
2023-03-21T05:33:06.496Z,8.47
2023-03-21T05:35:32.837Z,9.23
2023-03-21T05:38:04.210Z,8.97
2023-03-21T05:40:35.111Z,9.33
2023-03-21T05:43:02.970Z,9.93
2023-03-21T05:45:29.510Z,8.60
2023-03-21T05:47:55.933Z,9.43
2023-03-21T05:50:26.335Z,9.17
2023-03-21T05:53:15.831Z,10.03
2023-03-21T05:55:42.575Z,10.60
2023-03-21T05:58:14.599Z,10.17
2023-03-21T06:00:45.809Z,10.87
2023-03-21T06:03:20.934Z,10.70
2023-03-21T06:06:16.388Z,9.90
2023-03-21T06:08:52.783Z,10.83
2023-03-21T06:11:24.284Z,11.83
2023-03-21T06:13:54.114Z,12.20
2023-03-21T06:16:22.122Z,12.30
2023-03-21T06:18:48.878Z,11.80
2023-03-21T06:21:35.873Z,11.47
2023-03-21T06:24:03.491Z,11.83
2023-03-21T06:26:30.120Z,11.90
2023-03-21T06:28:57.384Z,12.47
2023-03-21T06:31:25.100Z,11.37
2023-03-21T06:33:53.616Z,10.70
2023-03-21T06:36:20.660Z,11.40
2023-03-21T06:38:48.597Z,11.07
2023-03-21T06:41:16.587Z,10.50
2023-03-21T06:43:50.911Z,10.80
2023-03-21T06:46:17.737Z,11.07
2023-03-21T06:48:44.453Z,10.80
2023-03-21T06:51:13.032Z,11.27
2023-03-21T06:53:45.766Z,12.70
2023-03-21T06:56:19.753Z,12.30
2023-03-21T06:58:46.523Z,12.10
2023-03-21T07:01:23.211Z,11.90
2023-03-21T07:03:58.253Z,12.80
2023-03-21T07:06:26.581Z,11.13
2023-03-21T07:08:54.876Z,9.83
2023-03-21T07:11:23.801Z,10.97
2023-03-21T07:13:51.056Z,9.77
2023-03-21T07:16:18.785Z,10.53
2023-03-21T07:18:45.437Z,9.10
2023-03-21T07:21:12.021Z,9.10
2023-03-21T07:23:41.279Z,10.43
2023-03-21T07:26:08.121Z,9.10
2023-03-21T07:28:34.739Z,9.07
2023-03-21T07:31:04.196Z,8.80
2023-03-21T07:33:31.441Z,9.00
2023-03-21T07:36:00.448Z,9.63
2023-03-21T07:38:27.429Z,9.10
2023-03-21T07:40:54.028Z,8.77
2023-03-21T07:43:20.602Z,9.80
2023-03-21T07:45:49.598Z,8.97
2023-03-21T07:48:17.831Z,8.63
2023-03-21T07:50:44.270Z,8.50
2023-03-21T07:53:10.656Z,8.43
2023-03-21T07:55:37.184Z,8.83
2023-03-21T07:58:04.229Z,8.20
2023-03-21T08:00:30.997Z,7.83
2023-03-21T08:02:59.119Z,8.57
2023-03-21T08:05:28.698Z,8.40
2023-03-21T08:07:55.717Z,9.93
2023-03-21T08:10:22.544Z,9.00
2023-03-21T08:12:49.854Z,8.87
2023-03-21T08:15:16.881Z,7.87
2023-03-21T08:17:45.368Z,9.47
2023-03-21T08:20:15.681Z,7.60
2023-03-21T08:22:43.145Z,8.10
2023-03-21T08:25:15.063Z,8.87
2023-03-21T08:27:43.202Z,9.40
2023-03-21T08:30:12.308Z,8.33
2023-03-21T08:32:40.168Z,8.97
2023-03-21T08:35:11.433Z,8.77
2023-03-21T08:37:39.226Z,7.93
2023-03-21T08:40:11.176Z,7.90
2023-03-21T08:42:38.258Z,8.00
2023-03-21T08:45:05.726Z,7.77
2023-03-21T08:47:32.380Z,8.23
2023-03-21T08:49:59.328Z,7.77
2023-03-21T08:52:27.096Z,7.57
2023-03-21T08:54:54.174Z,7.70
2023-03-21T08:57:20.499Z,7.33
2023-03-21T08:59:46.895Z,7.27
2023-03-21T09:02:15.603Z,7.77
2023-03-21T09:04:43.741Z,6.90
2023-03-21T09:07:12.360Z,5.73
2023-03-21T09:09:39.305Z,6.87
2023-03-21T09:12:05.906Z,6.90
2023-03-21T09:14:33.154Z,6.93
2023-03-21T09:16:59.481Z,6.47
2023-03-21T09:19:27.742Z,7.27
2023-03-21T09:21:55.549Z,7.77
2023-03-21T09:24:21.881Z,7.63
2023-03-21T09:26:50.782Z,7.33
2023-03-21T09:29:19.440Z,7.30
2023-03-21T09:31:46.985Z,7.20
2023-03-21T09:34:15.182Z,7.50
2023-03-21T09:36:44.075Z,8.20
2023-03-21T09:39:11.832Z,7.80
2023-03-21T09:42:23.074Z,7.70
2023-03-21T09:45:06.050Z,8.30
2023-03-21T09:47:53.112Z,8.27
2023-03-21T09:50:30.178Z,7.37
2023-03-21T09:53:00.211Z,8.47
2023-03-21T09:55:31.050Z,8.33
2023-03-21T09:58:24.376Z,8.13
2023-03-21T10:00:56.531Z,7.43
2023-03-21T10:03:26.174Z,7.73
2023-03-21T10:05:58.710Z,9.60
2023-03-21T10:08:31.018Z,8.00
2023-03-21T10:11:02.195Z,8.93
2023-03-21T10:13:56.641Z,8.67
2023-03-21T10:16:27.460Z,9.80
2023-03-21T10:18:55.128Z,8.00
2023-03-21T10:21:51.337Z,8.37
2023-03-21T10:24:26.360Z,7.77
2023-03-21T10:26:54.249Z,8.30
2023-03-21T10:29:26.176Z,7.67
2023-03-21T10:31:54.632Z,8.20
2023-03-21T10:34:32.836Z,7.73
2023-03-21T10:37:01.691Z,7.50
2023-03-21T10:39:35.595Z,8.83
2023-03-21T10:42:02.180Z,9.73
2023-03-21T10:44:31.011Z,8.90
2023-03-21T10:47:02.989Z,8.17
2023-03-21T10:49:40.193Z,7.77
2023-03-21T10:52:18.171Z,8.77
2023-03-21T10:54:45.102Z,8.10
2023-03-21T10:57:23.008Z,7.33
2023-03-21T11:00:00.882Z,7.63
2023-03-21T11:02:34.707Z,7.97
2023-03-21T11:05:07.516Z,7.10
2023-03-21T11:07:36.003Z,8.60
2023-03-21T11:10:17.169Z,7.53
2023-03-21T11:12:48.147Z,6.70
2023-03-21T11:15:37.726Z,7.27
2023-03-21T11:18:39.040Z,7.40
2023-03-21T11:21:08.486Z,7.07
2023-03-21T11:23:43.828Z,8.07
2023-03-21T11:26:16.512Z,7.60
2023-03-21T11:28:44.772Z,6.70
2023-03-21T11:31:11.727Z,8.00
2023-03-21T11:33:49.474Z,7.77
2023-03-21T11:36:18.973Z,7.63
2023-03-21T11:38:51.075Z,6.97
2023-03-21T11:41:47.340Z,7.20
2023-03-21T11:44:44.041Z,7.33
2023-03-21T11:47:11.226Z,6.50
2023-03-21T11:49:37.913Z,6.90
2023-03-21T11:52:25.633Z,6.87
2023-03-21T11:55:01.547Z,8.00
2023-03-21T11:57:37.110Z,7.40
2023-03-21T12:00:15.721Z,7.13
2023-03-21T12:03:06.400Z,7.17
2023-03-21T12:05:43.360Z,6.43
2023-03-21T12:08:12.646Z,6.60
2023-03-21T12:10:49.341Z,5.93
2023-03-21T12:13:44.696Z,6.37
2023-03-21T12:16:25.585Z,5.57
2023-03-21T12:19:22.761Z,5.13
2023-03-21T12:22:01.328Z,4.70
2023-03-21T12:24:45.939Z,4.23
2023-03-21T12:27:39.136Z,5.30
2023-03-21T12:30:36.860Z,5.70
2023-03-21T12:33:22.058Z,5.43
2023-03-21T12:35:55.020Z,4.43
2023-03-21T12:38:41.657Z,4.27
2023-03-21T12:41:30.488Z,5.83
2023-03-21T12:44:13.893Z,5.33
2023-03-21T12:46:48.745Z,4.53
2023-03-21T12:49:22.906Z,4.20
2023-03-21T12:51:54.633Z,5.10
2023-03-21T12:54:25.346Z,3.70
2023-03-21T12:57:02.059Z,4.93
2023-03-21T12:59:56.605Z,5.47
2023-03-21T13:02:32.788Z,5.30
2023-03-21T13:05:09.992Z,5.20
2023-03-21T13:07:41.945Z,4.70
2023-03-21T13:10:24.087Z,5.30
2023-03-21T13:13:13.355Z,5.40
2023-03-21T13:16:12.213Z,4.90
2023-03-21T13:19:19.775Z,4.93
2023-03-21T13:22:04.490Z,5.30
2023-03-21T13:24:48.047Z,4.73
2023-03-21T13:27:26.142Z,4.70
2023-03-21T13:30:00.894Z,4.63
2023-03-21T13:32:40.343Z,4.93
2023-03-21T13:35:12.501Z,4.50
2023-03-21T13:37:58.061Z,4.50
2023-03-21T13:40:49.549Z,5.27
2023-03-21T13:43:43.617Z,5.00
2023-03-21T13:46:14.463Z,4.20
2023-03-21T13:49:00.525Z,4.30
2023-03-21T13:51:35.976Z,5.00
2023-03-21T13:54:08.684Z,4.33
2023-03-21T13:56:46.997Z,4.30
2023-03-21T13:59:18.677Z,4.33
2023-03-21T14:01:58.764Z,4.57
2023-03-21T14:04:42.551Z,5.50
2023-03-21T14:07:42.018Z,5.87
2023-03-21T14:10:20.024Z,5.27
2023-03-21T14:12:47.415Z,4.60
2023-03-21T14:15:19.255Z,3.77
2023-03-21T14:18:10.959Z,3.80
2023-03-21T14:20:56.114Z,3.97
2023-03-21T14:23:23.091Z,4.10
2023-03-21T14:25:50.518Z,4.83
2023-03-21T14:28:23.738Z,4.57
2023-03-21T14:30:53.712Z,4.77
2023-03-21T14:33:36.187Z,5.10
2023-03-21T14:36:18.902Z,5.67
2023-03-21T14:38:55.325Z,4.40
2023-03-21T14:41:25.173Z,3.80
2023-03-21T14:44:35.926Z,4.17
2023-03-21T14:47:22.138Z,4.00
2023-03-21T14:49:49.620Z,4.10
2023-03-21T14:52:24.923Z,4.37
2023-03-21T14:54:52.548Z,4.67
2023-03-21T14:57:22.568Z,4.63
2023-03-21T14:59:54.016Z,4.63
2023-03-21T15:02:27.890Z,5.07
2023-03-21T15:04:58.001Z,4.03
2023-03-21T15:07:33.309Z,4.87
2023-03-21T15:10:08.330Z,4.70
2023-03-21T15:12:34.718Z,5.07
2023-03-21T15:15:02.238Z,5.40
2023-03-21T15:17:29.124Z,4.60
2023-03-21T15:19:55.477Z,4.27
2023-03-21T15:22:32.091Z,4.80
2023-03-21T15:25:03.058Z,5.20
2023-03-21T15:27:32.820Z,4.30
2023-03-21T15:29:59.335Z,4.97
2023-03-21T15:32:28.070Z,5.17
2023-03-21T15:35:03.388Z,4.90
2023-03-21T15:37:34.540Z,5.40
2023-03-21T15:40:21.434Z,5.47
2023-03-21T15:42:47.793Z,7.77
2023-03-21T15:45:24.636Z,6.23
2023-03-21T15:48:06.346Z,7.97
2023-03-21T15:50:37.435Z,6.63
2023-03-21T15:53:14.624Z,4.87
2023-03-21T15:55:52.024Z,5.17
2023-03-21T15:58:24.475Z,5.30
2023-03-21T16:00:55.853Z,4.33
2023-03-21T16:03:30.278Z,4.90
2023-03-21T16:06:12.408Z,4.73
2023-03-21T16:08:46.964Z,4.87
2023-03-21T16:11:22.386Z,4.63
2023-03-21T16:13:49.693Z,4.63
2023-03-21T16:16:21.784Z,5.00
2023-03-21T16:18:48.287Z,4.80
2023-03-21T16:21:17.246Z,5.17
2023-03-21T16:23:44.402Z,5.10
2023-03-21T16:26:13.813Z,5.47
2023-03-21T16:28:40.349Z,5.00
2023-03-21T16:31:08.997Z,5.63
2023-03-21T16:33:35.694Z,4.73
2023-03-21T16:36:02.653Z,6.57
2023-03-21T16:38:29.104Z,4.87
2023-03-21T16:40:55.595Z,5.10
2023-03-21T16:43:21.967Z,5.53
2023-03-21T16:45:48.416Z,4.33
2023-03-21T16:48:17.622Z,5.63
2023-03-21T16:50:47.669Z,5.00
2023-03-21T16:53:14.020Z,5.33
2023-03-21T16:55:40.915Z,5.33
2023-03-21T16:58:07.294Z,5.20
2023-03-21T17:00:34.036Z,5.00
2023-03-21T17:03:08.571Z,4.33
2023-03-21T17:05:35.138Z,5.03
2023-03-21T17:08:02.734Z,4.60
2023-03-21T17:12:57.773Z,4.67
2023-03-21T17:15:24.153Z,4.90
2023-03-21T17:17:50.506Z,5.13
2023-03-21T17:20:24.757Z,4.67
2023-03-21T17:22:51.407Z,6.27
2023-03-21T17:25:18.908Z,5.27
2023-03-21T17:27:45.659Z,5.60
2023-03-21T17:30:33.804Z,5.20
2023-03-21T17:33:00.297Z,4.90
2023-03-21T17:35:27.873Z,5.87
2023-03-21T17:37:58.059Z,5.77
2023-03-21T17:40:29.972Z,6.23
2023-03-21T17:42:57.324Z,5.40
2023-03-21T17:45:23.892Z,6.43
2023-03-21T17:47:51.235Z,6.07
2023-03-21T17:50:37.237Z,7.43
2023-03-21T17:53:04.068Z,7.37
2023-03-21T17:55:30.603Z,7.40
2023-03-21T17:57:57.043Z,9.97
2023-03-21T18:00:25.966Z,6.40
2023-03-21T18:02:53.049Z,9.00
2023-03-21T18:05:26.160Z,9.37
2023-03-21T18:08:11.219Z,7.20
2023-03-21T18:10:40.214Z,7.50
2023-03-21T18:13:06.898Z,8.27
2023-03-21T18:15:33.701Z,6.77
2023-03-21T18:18:00.100Z,6.40
2023-03-21T18:20:49.800Z,6.83
2023-03-21T18:23:14.828Z,6.40
2023-03-21T18:25:41.687Z,6.53
2023-03-21T18:28:11.799Z,6.63
2023-03-21T18:30:56.961Z,6.17
2023-03-21T18:33:27.108Z,7.27
2023-03-21T18:35:58.813Z,8.03
2023-03-21T18:38:26.315Z,6.83
2023-03-21T18:40:52.687Z,5.97
2023-03-21T18:46:06.216Z,6.70
2023-03-21T18:48:34.134Z,6.27
2023-03-21T18:51:00.924Z,5.83
2023-03-21T18:53:27.640Z,6.37
2023-03-21T18:55:54.230Z,6.43
2023-03-21T18:58:21.199Z,6.00
2023-03-21T19:00:49.018Z,6.30
2023-03-21T19:03:24.864Z,5.47
2023-03-21T19:06:00.746Z,7.90
2023-03-21T19:08:27.176Z,8.13
2023-03-21T19:10:53.823Z,8.37
2023-03-21T19:13:20.587Z,10.40
2023-03-21T19:15:49.594Z,7.30
2023-03-21T19:18:37.913Z,6.97
2023-03-21T19:21:03.401Z,7.10
2023-03-21T19:23:40.917Z,7.43
2023-03-21T19:26:16.200Z,7.80
2023-03-21T19:28:42.510Z,7.77
2023-03-21T19:31:08.868Z,8.97
2023-03-21T19:33:35.398Z,7.27
2023-03-21T19:36:15.320Z,6.53
2023-03-21T19:38:44.876Z,6.47
2023-03-21T19:41:11.233Z,6.77
2023-03-21T19:43:39.885Z,7.33
2023-03-21T19:46:06.941Z,7.57
2023-03-21T19:48:33.466Z,7.87
2023-03-21T19:51:36.392Z,7.57
2023-03-21T19:53:49.066Z,8.50
2023-03-21T19:56:22.459Z,8.30
2023-03-21T19:58:50.474Z,8.20
2023-03-21T20:01:17.089Z,9.83
2023-03-21T20:03:44.458Z,9.17
2023-03-21T20:06:11.543Z,9.13
2023-03-21T20:09:05.753Z,8.60
2023-03-21T20:11:24.170Z,9.63
2023-03-21T20:13:50.571Z,13.97
2023-03-21T20:16:18.296Z,11.73
2023-03-21T20:18:45.524Z,11.83
2023-03-21T20:21:17.535Z,9.40
2023-03-21T20:23:49.096Z,8.97
2023-03-21T20:26:16.183Z,9.47
2023-03-21T20:28:55.910Z,9.33
2023-03-21T20:31:26.205Z,9.50
2023-03-21T20:33:53.046Z,9.30
2023-03-21T20:36:38.585Z,8.67
2023-03-21T20:39:06.822Z,9.70
2023-03-21T20:41:33.181Z,10.40
2023-03-21T20:46:47.552Z,9.77
2023-03-21T20:49:15.199Z,9.90
2023-03-21T20:54:28.634Z,10.07
2023-03-21T20:56:55.214Z,10.13
2023-03-21T20:59:27.113Z,10.17
2023-03-21T21:01:57.696Z,13.47
2023-03-21T21:04:46.700Z,11.73
2023-03-21T21:07:15.846Z,10.47
2023-03-21T21:09:43.778Z,9.77
2023-03-21T21:12:11.520Z,9.87
2023-03-21T21:14:38.788Z,10.63
2023-03-21T21:17:23.846Z,10.53
2023-03-21T21:19:52.460Z,10.03
2023-03-21T21:22:18.957Z,9.33
2023-03-21T21:24:45.290Z,10.77
2023-03-21T21:27:11.891Z,9.10
2023-03-21T21:29:38.405Z,7.87
2023-03-21T21:32:05.155Z,7.73
2023-03-21T21:34:31.571Z,7.27
2023-03-21T21:36:57.965Z,7.43
2023-03-21T21:39:26.309Z,6.90
2023-03-21T21:41:53.832Z,7.60
2023-03-21T21:44:20.518Z,6.87
2023-03-21T21:46:47.109Z,7.57
2023-03-21T21:49:13.592Z,7.00
2023-03-21T21:51:41.705Z,7.43
2023-03-21T21:54:08.051Z,7.63
2023-03-21T21:56:36.381Z,8.13
2023-03-21T21:59:03.938Z,7.43
2023-03-21T22:01:34.436Z,8.07
2023-03-21T22:04:08.113Z,6.60
2023-03-21T22:06:34.770Z,7.77
2023-03-21T22:09:02.181Z,7.10
2023-03-21T22:11:28.505Z,6.83
2023-03-21T22:13:54.824Z,5.67
2023-03-21T22:16:21.489Z,6.13
2023-03-21T22:18:47.992Z,5.77
2023-03-21T22:21:14.447Z,6.17
2023-03-21T22:23:43.391Z,7.00
2023-03-21T22:26:10.428Z,6.70
2023-03-21T22:28:39.696Z,6.70
2023-03-21T22:31:09.446Z,7.13
2023-03-21T22:33:35.824Z,5.53
2023-03-21T22:36:02.302Z,6.60
2023-03-21T22:38:28.779Z,5.80
2023-03-21T22:40:59.694Z,5.57
2023-03-21T22:43:26.171Z,5.10
2023-03-21T22:45:52.980Z,6.30
2023-03-21T22:48:20.109Z,5.87
2023-03-21T22:50:46.892Z,5.30
2023-03-21T22:53:13.999Z,5.30
2023-03-21T22:55:40.405Z,5.27
2023-03-21T22:58:06.788Z,6.50
2023-03-21T23:00:33.397Z,5.97
2023-03-21T23:02:59.956Z,6.87
2023-03-21T23:05:26.604Z,6.30
2023-03-21T23:07:53.015Z,7.03
2023-03-21T23:10:19.597Z,6.00
2023-03-21T23:12:46.023Z,7.47
2023-03-21T23:15:12.442Z,5.93
2023-03-21T23:17:38.840Z,6.20
2023-03-21T23:20:07.761Z,6.37
2023-03-21T23:22:35.373Z,6.33
2023-03-21T23:25:02.090Z,5.67
2023-03-21T23:27:29.236Z,6.50
2023-03-21T23:29:56.796Z,6.87
2023-03-21T23:32:23.782Z,7.30
2023-03-21T23:34:50.145Z,6.60
2023-03-21T23:37:16.582Z,5.83
2023-03-21T23:39:45.031Z,7.57
2023-03-21T23:42:11.396Z,6.97
2023-03-21T23:44:37.852Z,6.53
2023-03-21T23:47:04.225Z,8.20
2023-03-21T23:49:33.501Z,6.90
2023-03-21T23:51:59.960Z,8.03
2023-03-21T23:54:26.472Z,7.20
2023-03-21T23:56:52.797Z,9.63
2023-03-21T23:59:19.127Z,7.67
